Terminal Aerodrome Forecast
Issued by NWS

Home | Current Version | Previous Version | Text Only | Print | Product List | Glossary On
Versions: 1 2 3 4 5 6 7 8 9 10 11 12 13 14 15 16 17 18 19
332
FTUS43 KLSX 201739
TAFSUS
TAF
KSUS 201739Z 2018/2118 01005KT P6SM SCT040 BKN200
     FM202000 16005KT P6SM SCT040 BKN200
     FM210600 00000KT P6SM SCT150
     FM211500 23004KT P6SM BKN060=

USA.gov is the U.S. government's official web portal to all federal, state and local government web resources and services.